createdAt,value
2022-07-28T00:00:13.151Z,100.00
2022-07-28T00:02:40.259Z,99.90
2022-07-28T00:10:55.688Z,100.00
2022-07-28T00:13:22.864Z,100.00
2022-07-28T00:15:50.081Z,100.00
2022-07-28T00:18:17.205Z,100.00
2022-07-28T00:20:44.316Z,100.00
2022-07-28T00:23:11.318Z,100.00
2022-07-28T00:25:38.565Z,100.00
2022-07-28T00:28:05.839Z,100.00
2022-07-28T00:30:32.908Z,100.00
2022-07-28T00:33:00.272Z,100.00
2022-07-28T00:35:30.882Z,100.00
2022-07-28T00:38:00.249Z,100.00
2022-07-28T00:40:48.028Z,100.00
2022-07-28T00:43:16.475Z,100.00
2022-07-28T00:45:43.760Z,100.00
2022-07-28T00:48:10.808Z,100.00
2022-07-28T00:50:40.913Z,100.00
2022-07-28T00:53:08.936Z,100.00
2022-07-28T00:56:05.323Z,100.00
2022-07-28T00:58:28.370Z,100.00
2022-07-28T01:00:57.263Z,100.00
2022-07-28T01:03:26.986Z,100.00
2022-07-28T01:06:24.431Z,100.00
2022-07-28T01:09:41.159Z,100.00
2022-07-28T01:12:26.410Z,100.00
2022-07-28T01:15:25.342Z,100.00
2022-07-28T01:18:17.734Z,100.00
2022-07-28T01:21:24.076Z,100.00
2022-07-28T01:24:22.547Z,100.00
2022-07-28T01:27:59.910Z,100.00
2022-07-28T01:30:44.213Z,100.00
2022-07-28T01:33:36.860Z,100.00
2022-07-28T01:36:15.250Z,100.00
2022-07-28T01:38:47.598Z,100.00
2022-07-28T01:41:25.485Z,100.00
2022-07-28T01:44:04.969Z,100.00
2022-07-28T01:46:37.434Z,100.00
2022-07-28T01:49:09.982Z,100.00
2022-07-28T01:51:40.096Z,100.00
2022-07-28T01:54:12.418Z,100.00
2022-07-28T01:56:44.293Z,100.00
2022-07-28T01:59:14.521Z,100.00
2022-07-28T02:01:50.970Z,100.00
2022-07-28T02:04:23.855Z,100.00
2022-07-28T02:06:55.804Z,100.00
2022-07-28T02:09:26.369Z,100.00
2022-07-28T02:11:57.325Z,100.00
2022-07-28T02:14:29.737Z,100.00
2022-07-28T02:17:08.082Z,100.00
2022-07-28T02:19:40.675Z,100.00
2022-07-28T02:22:10.927Z,100.00
2022-07-28T02:24:41.969Z,100.00
2022-07-28T02:27:23.802Z,100.00
2022-07-28T02:30:12.599Z,100.00
2022-07-28T02:33:15.555Z,100.00
2022-07-28T02:36:02.015Z,100.00
2022-07-28T02:38:40.326Z,100.00
2022-07-28T02:41:26.476Z,100.00
2022-07-28T02:44:03.557Z,100.00
2022-07-28T02:46:43.465Z,100.00
2022-07-28T02:49:24.965Z,100.00
2022-07-28T02:51:56.601Z,100.00
2022-07-28T02:54:27.902Z,100.00
2022-07-28T02:57:00.171Z,100.00
2022-07-28T02:59:30.368Z,100.00
2022-07-28T03:01:59.585Z,100.00
2022-07-28T03:04:48.142Z,100.00
2022-07-28T03:07:16.971Z,100.00
2022-07-28T03:09:48.934Z,100.00
2022-07-28T03:12:16.861Z,100.00
2022-07-28T03:14:43.962Z,100.00
2022-07-28T03:17:11.244Z,100.00
2022-07-28T03:19:38.635Z,100.00
2022-07-28T03:22:06.445Z,100.00
2022-07-28T03:24:45.105Z,100.00
2022-07-28T03:27:31.229Z,100.00
2022-07-28T03:30:15.357Z,100.00
2022-07-28T03:32:54.597Z,100.00
2022-07-28T03:35:22.586Z,100.00
2022-07-28T03:38:08.176Z,100.00
2022-07-28T03:40:39.258Z,100.00
2022-07-28T03:43:10.943Z,100.00
2022-07-28T03:45:41.010Z,100.00
2022-07-28T03:48:09.129Z,100.00
2022-07-28T03:50:36.140Z,100.00
2022-07-28T03:53:03.342Z,100.00
2022-07-28T03:55:31.011Z,100.00
2022-07-28T03:57:58.212Z,100.00
2022-07-28T04:00:26.037Z,100.00
2022-07-28T04:02:53.293Z,100.00
2022-07-28T04:05:20.855Z,100.00
2022-07-28T04:07:48.292Z,100.00
2022-07-28T04:10:18.056Z,100.00
2022-07-28T04:12:56.737Z,100.00
2022-07-28T04:15:27.773Z,100.00
2022-07-28T04:17:56.848Z,100.00
2022-07-28T04:20:28.417Z,100.00
2022-07-28T04:22:56.405Z,100.00
2022-07-28T04:25:27.398Z,100.00
2022-07-28T04:27:56.258Z,100.00
2022-07-28T04:30:25.411Z,100.00
2022-07-28T04:32:56.182Z,100.00
2022-07-28T04:35:28.381Z,100.00
2022-07-28T04:37:58.495Z,100.00
2022-07-28T04:40:26.939Z,100.00
2022-07-28T04:42:56.087Z,100.00
2022-07-28T04:45:23.335Z,100.00
2022-07-28T04:47:51.826Z,100.00
2022-07-28T04:50:21.407Z,100.00
2022-07-28T04:52:51.540Z,100.00
2022-07-28T04:55:18.848Z,100.00
2022-07-28T04:57:48.255Z,100.00
2022-07-28T05:00:16.118Z,100.00
2022-07-28T05:02:45.877Z,100.00
2022-07-28T05:05:13.587Z,100.00
2022-07-28T05:07:42.133Z,100.00
2022-07-28T05:10:12.877Z,100.00
2022-07-28T05:12:40.388Z,100.00
2022-07-28T05:15:09.667Z,100.00
2022-07-28T05:17:39.966Z,100.00
2022-07-28T05:20:08.827Z,100.00
2022-07-28T05:22:50.990Z,100.00
2022-07-28T05:25:21.923Z,100.00
2022-07-28T05:27:50.947Z,100.00
2022-07-28T05:30:19.488Z,100.00
2022-07-28T05:32:47.963Z,100.00
2022-07-28T05:35:15.846Z,100.00
2022-07-28T05:37:44.048Z,100.00
2022-07-28T05:40:16.372Z,100.00
2022-07-28T05:42:47.509Z,100.00
2022-07-28T05:45:16.885Z,100.00
2022-07-28T05:47:47.944Z,100.00
2022-07-28T05:50:18.135Z,100.00
2022-07-28T05:52:47.886Z,100.00
2022-07-28T05:55:16.338Z,93.01
2022-07-28T05:57:44.156Z,88.52
2022-07-28T06:00:18.414Z,84.71
2022-07-28T06:02:49.253Z,84.93
2022-07-28T06:05:20.470Z,83.63
2022-07-28T06:07:50.712Z,82.05
2022-07-28T06:10:25.047Z,80.44
2022-07-28T06:12:56.407Z,76.50
2022-07-28T06:15:28.213Z,76.12
2022-07-28T06:17:55.998Z,75.11
2022-07-28T06:20:27.825Z,74.99
2022-07-28T06:22:56.107Z,73.23
2022-07-28T06:25:28.619Z,71.95
2022-07-28T06:28:04.791Z,72.89
2022-07-28T06:30:32.538Z,70.33
2022-07-28T06:32:59.917Z,72.70
2022-07-28T06:35:27.453Z,71.15
2022-07-28T06:37:55.054Z,66.55
2022-07-28T06:40:22.489Z,69.24
2022-07-28T06:42:50.177Z,69.29
2022-07-28T06:45:21.221Z,69.30
2022-07-28T06:47:53.805Z,68.57
2022-07-28T06:50:24.875Z,66.08
2022-07-28T06:52:56.680Z,65.30
2022-07-28T06:55:24.416Z,64.92
2022-07-28T06:57:51.843Z,69.26
2022-07-28T07:00:19.281Z,69.24
2022-07-28T07:02:46.362Z,67.62
2022-07-28T07:05:14.177Z,65.11
2022-07-28T07:07:43.540Z,66.59
2022-07-28T07:10:12.487Z,64.22
2022-07-28T07:12:39.870Z,67.60
2022-07-28T07:15:08.418Z,64.46
2022-07-28T07:17:37.564Z,67.02
2022-07-28T07:20:07.764Z,63.05
2022-07-28T07:22:42.231Z,64.71
2022-07-28T07:25:19.168Z,65.08
2022-07-28T07:27:47.714Z,63.83
2022-07-28T07:30:17.407Z,63.83
2022-07-28T07:32:44.933Z,62.64
2022-07-28T07:35:12.617Z,64.07
2022-07-28T07:37:40.672Z,64.43
2022-07-28T07:40:09.474Z,64.59
2022-07-28T07:42:37.186Z,63.32
2022-07-28T07:45:05.185Z,61.88
2022-07-28T07:47:32.247Z,60.71
2022-07-28T07:50:03.962Z,62.50
2022-07-28T07:52:32.332Z,61.57
2022-07-28T07:54:59.316Z,60.14
2022-07-28T07:57:26.349Z,62.01
2022-07-28T07:59:53.400Z,59.64
2022-07-28T08:02:20.448Z,58.85
2022-07-28T08:04:47.758Z,60.22
2022-07-28T08:07:15.401Z,58.38
2022-07-28T08:09:42.394Z,59.20
2022-07-28T08:12:16.902Z,60.06
2022-07-28T08:14:51.563Z,58.08
2022-07-28T08:17:22.249Z,58.21
2022-07-28T08:19:52.975Z,58.72
2022-07-28T08:22:20.055Z,57.09
2022-07-28T08:24:47.150Z,58.30
2022-07-28T08:27:14.157Z,56.21
2022-07-28T08:29:41.390Z,58.35
2022-07-28T08:32:08.527Z,55.24
2022-07-28T08:34:36.413Z,54.75
2022-07-28T08:37:06.306Z,54.77
2022-07-28T08:39:36.392Z,53.74
2022-07-28T08:42:16.437Z,54.38
2022-07-28T08:45:03.161Z,51.18
2022-07-28T08:47:45.969Z,53.97
2022-07-28T08:50:24.672Z,50.92
2022-07-28T08:52:54.110Z,52.72
2022-07-28T08:55:32.127Z,51.95
2022-07-28T08:58:01.667Z,52.54
2022-07-28T09:00:29.632Z,51.83
2022-07-28T09:02:57.944Z,54.09
2022-07-28T09:05:27.509Z,53.98
2022-07-28T09:07:56.025Z,54.82
2022-07-28T09:10:24.138Z,55.20
2022-07-28T09:12:52.098Z,51.99
2022-07-28T09:15:19.303Z,51.48
2022-07-28T09:17:46.450Z,55.14
2022-07-28T09:20:14.154Z,52.51
2022-07-28T09:23:04.879Z,52.47
2022-07-28T09:26:10.811Z,55.09
2022-07-28T09:28:58.215Z,53.25
2022-07-28T09:31:30.720Z,51.23
2022-07-28T09:34:05.217Z,51.63
2022-07-28T09:36:41.652Z,53.66
2022-07-28T09:39:09.749Z,52.64
2022-07-28T09:41:57.821Z,52.89
2022-07-28T09:44:27.623Z,54.35
2022-07-28T09:46:56.729Z,53.46
2022-07-28T09:49:44.491Z,53.44
2022-07-28T09:52:12.099Z,53.18
2022-07-28T09:54:41.248Z,53.43
2022-07-28T09:57:11.855Z,53.33
2022-07-28T09:59:50.513Z,50.43
2022-07-28T10:02:34.326Z,50.03
2022-07-28T10:05:04.240Z,49.54
2022-07-28T10:07:31.432Z,49.09
2022-07-28T10:10:08.030Z,48.07
2022-07-28T10:12:39.309Z,51.75
2022-07-28T10:15:36.697Z,51.41
2022-07-28T10:18:06.455Z,49.76
2022-07-28T10:20:34.509Z,48.23
2022-07-28T10:23:11.594Z,48.97
2022-07-28T10:25:44.410Z,48.43
2022-07-28T10:28:22.978Z,48.54
2022-07-28T10:31:00.468Z,48.95
2022-07-28T10:33:32.932Z,48.74
2022-07-28T10:36:02.659Z,45.44
2022-07-28T10:38:37.116Z,45.95
2022-07-28T10:41:09.738Z,45.72
2022-07-28T10:43:42.794Z,47.62
2022-07-28T10:46:16.655Z,46.58
2022-07-28T10:48:44.976Z,46.84
2022-07-28T10:51:13.944Z,46.48
2022-07-28T10:54:07.282Z,45.51
2022-07-28T10:57:05.185Z,46.43
2022-07-28T11:00:25.949Z,47.29
2022-07-28T11:03:00.834Z,48.11
2022-07-28T11:05:40.896Z,49.63
2022-07-28T11:08:17.058Z,46.38
2022-07-28T11:10:58.873Z,43.81
2022-07-28T11:13:37.094Z,45.68
2022-07-28T11:16:14.696Z,46.35
2022-07-28T11:19:36.639Z,45.41
2022-07-28T11:22:18.634Z,41.21
2022-07-28T11:24:57.981Z,43.44
2022-07-28T11:27:40.925Z,46.05
2022-07-28T11:30:35.961Z,44.15
2022-07-28T11:33:11.533Z,43.29
2022-07-28T11:35:41.147Z,44.11
2022-07-28T11:38:13.168Z,43.07
2022-07-28T11:40:48.107Z,43.55
2022-07-28T11:43:28.611Z,42.04
2022-07-28T11:46:09.667Z,42.95
2022-07-28T11:48:47.037Z,42.24
2022-07-28T11:51:15.946Z,43.28
2022-07-28T11:53:55.668Z,43.19
2022-07-28T11:56:31.796Z,43.52
2022-07-28T11:59:06.446Z,42.82
2022-07-28T12:01:36.794Z,42.95
2022-07-28T12:04:13.397Z,41.96
2022-07-28T12:06:43.644Z,42.25
2022-07-28T12:09:21.852Z,43.16
2022-07-28T12:11:54.795Z,42.10
2022-07-28T12:14:23.280Z,43.37
2022-07-28T12:16:52.319Z,40.67
2022-07-28T12:19:22.091Z,40.79
2022-07-28T12:21:55.373Z,41.88
2022-07-28T12:24:45.611Z,40.84
2022-07-28T12:27:16.576Z,40.81
2022-07-28T12:29:47.846Z,42.86
2022-07-28T12:32:17.619Z,41.68
2022-07-28T12:34:45.804Z,40.98
2022-07-28T12:37:14.668Z,40.24
2022-07-28T12:39:44.309Z,41.18
2022-07-28T12:42:16.006Z,39.34
2022-07-28T12:44:48.720Z,40.24
2022-07-28T12:47:28.128Z,41.50
2022-07-28T12:50:20.119Z,41.50
2022-07-28T12:53:12.238Z,41.87
2022-07-28T12:55:45.994Z,44.09
2022-07-28T12:58:28.963Z,41.09
2022-07-28T13:00:56.536Z,39.86
2022-07-28T13:03:30.107Z,41.43
2022-07-28T13:06:10.083Z,40.42
2022-07-28T13:08:47.289Z,42.34
2022-07-28T13:11:42.405Z,41.30
2022-07-28T13:14:04.304Z,39.80
2022-07-28T13:16:31.917Z,39.19
2022-07-28T13:19:04.625Z,40.61
2022-07-28T13:21:57.399Z,39.63
2022-07-28T13:24:30.543Z,37.42
2022-07-28T13:26:59.480Z,38.12
2022-07-28T13:29:26.553Z,37.41
2022-07-28T13:31:55.072Z,37.90
2022-07-28T13:34:22.525Z,39.07
2022-07-28T13:36:49.621Z,39.68
2022-07-28T13:39:16.713Z,39.62
2022-07-28T13:41:56.583Z,39.29
2022-07-28T13:44:28.881Z,39.92
2022-07-28T13:47:00.157Z,39.75
2022-07-28T13:49:31.849Z,40.08
2022-07-28T13:52:02.393Z,39.29
2022-07-28T13:54:29.683Z,38.49
2022-07-28T13:57:14.139Z,40.47
2022-07-28T13:59:44.069Z,37.00
2022-07-28T14:02:20.069Z,37.93
2022-07-28T14:04:50.677Z,37.98
2022-07-28T14:07:20.580Z,36.26
2022-07-28T14:09:50.826Z,40.08
2022-07-28T14:12:19.286Z,35.93
2022-07-28T14:14:48.376Z,34.64
2022-07-28T14:20:11.924Z,34.62
2022-07-28T14:22:39.154Z,35.38
2022-07-28T14:25:07.247Z,35.96
2022-07-28T14:27:34.783Z,35.69
2022-07-28T14:30:03.875Z,32.12
2022-07-28T14:32:33.707Z,33.49
2022-07-28T14:35:02.291Z,32.96
2022-07-28T14:37:33.230Z,33.91
2022-07-28T14:40:09.512Z,32.96
2022-07-28T14:42:36.696Z,31.49
2022-07-28T14:45:05.735Z,31.27
2022-07-28T14:47:44.635Z,29.80
2022-07-28T14:50:13.493Z,31.32
2022-07-28T14:52:40.750Z,32.78
2022-07-28T14:55:12.011Z,31.89
2022-07-28T14:57:51.727Z,31.49
2022-07-28T15:00:22.384Z,32.77
2022-07-28T15:02:51.619Z,32.51
2022-07-28T15:05:20.853Z,29.46
2022-07-28T15:07:52.122Z,33.36
2022-07-28T15:10:20.737Z,30.97
2022-07-28T15:12:48.443Z,30.39
2022-07-28T15:15:17.091Z,31.96
2022-07-28T15:17:44.156Z,32.41
2022-07-28T15:20:11.828Z,31.77
2022-07-28T15:22:38.948Z,30.17
2022-07-28T15:25:06.757Z,31.56
2022-07-28T15:27:34.201Z,31.07
2022-07-28T15:30:02.836Z,30.43
2022-07-28T15:32:31.857Z,29.79
2022-07-28T15:34:59.811Z,30.44
2022-07-28T15:37:28.117Z,31.47
2022-07-28T15:39:55.243Z,29.65
2022-07-28T15:42:23.114Z,30.93
2022-07-28T15:44:51.812Z,29.48
2022-07-28T15:47:18.884Z,30.74
2022-07-28T15:49:45.954Z,32.24
2022-07-28T15:52:14.636Z,31.09
2022-07-28T15:54:42.279Z,28.80
2022-07-28T15:57:09.575Z,28.66
2022-07-28T15:59:48.695Z,28.50
2022-07-28T16:02:18.619Z,28.16
2022-07-28T16:04:52.214Z,26.22
2022-07-28T16:07:24.547Z,28.00
2022-07-28T16:09:55.727Z,26.49
2022-07-28T16:12:26.565Z,26.71
2022-07-28T16:14:54.214Z,26.63
2022-07-28T16:17:23.354Z,28.43
2022-07-28T16:19:52.027Z,28.33
2022-07-28T16:22:20.651Z,27.32
2022-07-28T16:24:48.442Z,27.20
2022-07-28T16:27:15.820Z,27.52
2022-07-28T16:29:44.888Z,27.20
2022-07-28T16:32:13.001Z,28.42
2022-07-28T16:34:40.128Z,27.76
2022-07-28T16:37:07.682Z,27.66
2022-07-28T16:39:35.204Z,28.63
2022-07-28T16:42:03.083Z,30.56
2022-07-28T16:44:31.202Z,29.54
2022-07-28T16:46:59.066Z,29.68
2022-07-28T16:49:26.183Z,30.97
2022-07-28T16:51:54.769Z,32.05
2022-07-28T16:54:22.870Z,32.96
2022-07-28T16:56:51.114Z,32.87
2022-07-28T16:59:18.184Z,33.90
2022-07-28T17:01:46.583Z,35.33
2022-07-28T17:04:18.647Z,35.78
2022-07-28T17:06:47.726Z,36.11
2022-07-28T17:09:15.981Z,37.36
2022-07-28T17:11:44.023Z,37.53
2022-07-28T17:14:12.806Z,37.10
2022-07-28T17:16:40.160Z,36.87
2022-07-28T17:19:07.199Z,37.84
2022-07-28T17:21:35.964Z,39.09
2022-07-28T17:24:03.759Z,37.82
2022-07-28T17:29:19.176Z,36.25
2022-07-28T17:31:46.368Z,33.75
2022-07-28T17:34:14.395Z,35.36
2022-07-28T17:36:42.071Z,35.92
2022-07-28T17:39:09.480Z,37.32
2022-07-28T17:41:36.689Z,38.27
2022-07-28T17:44:04.238Z,38.51
2022-07-28T17:46:32.226Z,39.60
2022-07-28T17:49:02.453Z,38.26
2022-07-28T17:51:30.865Z,39.82
2022-07-28T17:53:58.131Z,37.18
2022-07-28T17:56:25.422Z,39.23
2022-07-28T17:58:53.538Z,40.48
2022-07-28T18:01:20.669Z,40.91
2022-07-28T18:03:57.998Z,41.77
2022-07-28T18:06:34.690Z,39.77
2022-07-28T18:09:10.660Z,41.30
2022-07-28T18:11:56.641Z,40.47
2022-07-28T18:14:29.434Z,41.01
2022-07-28T18:16:58.015Z,42.50
2022-07-28T18:19:28.401Z,42.10
2022-07-28T18:21:56.450Z,43.43
2022-07-28T18:24:23.834Z,43.06
2022-07-28T18:26:54.968Z,43.07
2022-07-28T18:29:22.493Z,42.35
2022-07-28T18:31:52.139Z,44.48
2022-07-28T18:36:53.200Z,45.78
2022-07-28T18:39:20.845Z,46.27
2022-07-28T18:41:48.188Z,45.65
2022-07-28T18:44:18.137Z,45.93
2022-07-28T18:46:46.110Z,46.47
2022-07-28T18:49:14.053Z,45.95
2022-07-28T18:51:44.265Z,48.53
2022-07-28T18:54:18.761Z,50.14
2022-07-28T18:56:49.502Z,50.62
2022-07-28T18:59:17.673Z,50.53
2022-07-28T19:01:45.047Z,52.37
2022-07-28T19:04:12.549Z,51.75
2022-07-28T19:06:39.999Z,52.28
2022-07-28T19:09:07.088Z,51.37
2022-07-28T19:11:34.279Z,52.57
2022-07-28T19:14:01.784Z,54.24
2022-07-28T19:16:28.945Z,53.18
2022-07-28T19:18:56.048Z,55.16
2022-07-28T19:21:24.416Z,55.21
2022-07-28T19:23:53.016Z,55.63
2022-07-28T19:26:20.437Z,54.69
2022-07-28T19:28:47.580Z,54.65
2022-07-28T19:31:14.623Z,55.02
2022-07-28T19:33:44.156Z,57.07
2022-07-28T19:36:15.555Z,56.87
2022-07-28T19:38:44.154Z,56.67
2022-07-28T19:41:15.651Z,56.93
2022-07-28T19:43:42.884Z,56.31
2022-07-28T19:46:10.934Z,57.42
2022-07-28T19:48:38.744Z,57.65
2022-07-28T19:51:06.571Z,57.75
2022-07-28T19:53:35.879Z,57.55
2022-07-28T19:56:08.938Z,57.05
2022-07-28T19:58:36.974Z,56.95
2022-07-28T20:01:06.460Z,57.30
2022-07-28T20:04:00.879Z,55.59
2022-07-28T20:06:24.660Z,55.46
2022-07-28T20:08:54.242Z,56.74
2022-07-28T20:11:21.477Z,57.13
2022-07-28T20:13:49.575Z,57.36
2022-07-28T20:16:17.656Z,58.24
2022-07-28T20:18:45.111Z,56.64
2022-07-28T20:21:12.238Z,56.62
2022-07-28T20:23:40.993Z,58.78
2022-07-28T20:26:09.809Z,58.96
2022-07-28T20:28:40.716Z,57.75
2022-07-28T20:31:09.625Z,58.03
2022-07-28T20:33:38.496Z,58.13
2022-07-28T20:36:06.008Z,58.69
2022-07-28T20:38:33.025Z,58.45
2022-07-28T20:41:00.014Z,59.20
2022-07-28T20:43:36.454Z,58.83
2022-07-28T20:46:08.077Z,59.43
2022-07-28T20:48:35.933Z,59.02
2022-07-28T20:51:03.061Z,60.40
2022-07-28T20:53:30.139Z,60.61
2022-07-28T20:55:57.405Z,59.94
2022-07-28T20:58:24.534Z,61.40
2022-07-28T21:00:52.057Z,60.73
2022-07-28T21:03:19.769Z,60.58
2022-07-28T21:05:46.807Z,60.97
2022-07-28T21:08:16.386Z,60.28
2022-07-28T21:10:46.163Z,61.36
2022-07-28T21:13:13.522Z,60.08
2022-07-28T21:15:40.905Z,61.07
2022-07-28T21:18:08.174Z,60.39
2022-07-28T21:20:35.457Z,61.30
2022-07-28T21:23:03.721Z,61.22
2022-07-28T21:25:32.379Z,60.25
2022-07-28T21:28:18.420Z,60.96
2022-07-28T21:30:46.253Z,60.69
2022-07-28T21:33:13.938Z,60.45
2022-07-28T21:35:50.598Z,61.10
2022-07-28T21:38:17.822Z,61.77
2022-07-28T21:40:44.868Z,62.45
2022-07-28T21:43:11.985Z,62.29
2022-07-28T21:45:39.451Z,62.04
2022-07-28T21:48:06.887Z,62.07
2022-07-28T21:50:37.339Z,62.06
2022-07-28T21:53:04.728Z,62.54
2022-07-28T21:55:31.705Z,63.66
2022-07-28T21:57:58.696Z,63.75
2022-07-28T22:00:26.045Z,63.18
2022-07-28T22:02:53.716Z,63.03
2022-07-28T22:05:21.040Z,63.15
2022-07-28T22:07:49.139Z,63.64
2022-07-28T22:10:17.563Z,64.23
2022-07-28T22:12:46.551Z,64.15
2022-07-28T22:15:13.820Z,64.94
2022-07-28T22:17:41.854Z,64.78
2022-07-28T22:20:10.933Z,64.86
2022-07-28T22:22:38.460Z,64.43
2022-07-28T22:25:06.566Z,64.92
2022-07-28T22:27:33.555Z,65.02
2022-07-28T22:30:00.698Z,65.30
2022-07-28T22:32:29.325Z,65.49
2022-07-28T22:34:58.429Z,66.28
2022-07-28T22:37:25.733Z,66.58
2022-07-28T22:39:52.894Z,66.22
2022-07-28T22:42:20.510Z,66.93
2022-07-28T22:44:47.484Z,68.06
2022-07-28T22:47:14.805Z,68.25
2022-07-28T22:49:41.806Z,68.33
2022-07-28T22:52:08.845Z,68.75
2022-07-28T22:54:40.831Z,68.84
2022-07-28T22:57:07.919Z,68.92
2022-07-28T22:59:38.698Z,69.60
2022-07-28T23:02:07.401Z,69.55
2022-07-28T23:04:34.449Z,69.83
2022-07-28T23:07:01.608Z,70.22
2022-07-28T23:09:28.925Z,71.08
2022-07-28T23:11:56.349Z,70.85
2022-07-28T23:14:23.940Z,71.68
2022-07-28T23:16:51.349Z,71.33
2022-07-28T23:19:18.533Z,71.30
2022-07-28T23:21:45.588Z,71.71
2022-07-28T23:24:12.988Z,72.69
2022-07-28T23:26:40.555Z,72.70
2022-07-28T23:29:08.574Z,72.81
2022-07-28T23:31:36.057Z,73.04
2022-07-28T23:34:03.225Z,73.47
2022-07-28T23:36:30.430Z,73.20
2022-07-28T23:38:59.409Z,73.39
2022-07-28T23:41:28.624Z,73.71
2022-07-28T23:43:56.080Z,74.08
2022-07-28T23:46:24.057Z,73.77
2022-07-28T23:48:51.258Z,74.18
2022-07-28T23:51:18.514Z,74.49
2022-07-28T23:53:45.595Z,74.55
2022-07-28T23:56:15.751Z,75.49
2022-07-28T23:58:42.842Z,75.80
